Time;durP1;ratioP1;P1;durP2;ratioP2;P2;SDS_P1;SDS_P2;PMS_P1;PMS_P2;Temp;Humidity;BMP_temperature;BMP_pressure;BME280_temperature;BME280_humidity;BME280_pressure;Samples;Min_cycle;Max_cycle;Signal;HPM_P1;HPM_P2
2022/01/20 00:00:21;;;;;;;18.15;7.58;;;;;;;-1.01;78.03;147424.17;1748400;81;21055;-57
2022/01/20 00:02:57;;;;;;;18.23;7.60;;;;;;;-1.00;77.93;147425.44;1750880;81;21031;-57
2022/01/20 00:08:27;;;;;;;17.35;7.60;;;;;;;-0.98;77.70;147429.31;1751799;81;21019;-56
2022/01/20 00:27:17;;;;;;;18.77;7.58;;;;;;;-1.07;77.41;147407.44;1748108;82;20388;-65
2022/01/20 00:32:48;;;;;;;16.00;7.17;;;;;;;-1.11;77.52;147397.17;1743814;82;21403;-56
2022/01/20 00:35:16;;;;;;;23.57;7.58;;;;;;;-1.14;77.55;147389.45;1725772;82;21013;-56
2022/01/20 00:37:34;;;;;;;16.62;7.37;;;;;;;-1.17;77.61;147384.31;1726240;82;21147;-57
2022/01/20 00:40:02;;;;;;;16.93;6.95;;;;;;;-1.19;77.69;147379.19;1737083;82;21576;-57
2022/01/20 00:42:29;;;;;;;17.00;7.37;;;;;;;-1.20;77.74;147375.30;1741086;82;21375;-56
2022/01/20 00:44:56;;;;;;;16.42;7.25;;;;;;;-1.21;77.72;147374.05;1749152;81;21009;-58
2022/01/20 00:47:23;;;;;;;15.25;6.97;;;;;;;-1.21;77.73;147374.05;1747741;82;20988;-64
2022/01/20 00:49:50;;;;;;;18.00;6.80;;;;;;;-1.22;77.75;147371.42;1743811;82;21438;-64
2022/01/20 00:52:17;;;;;;;17.82;7.30;;;;;;;-1.22;77.73;147370.16;1742282;82;21412;-65
2022/01/20 00:54:44;;;;;;;18.35;7.03;;;;;;;-1.22;77.75;147371.42;1738968;82;21091;-65
2022/01/20 00:57:10;;;;;;;16.97;7.17;;;;;;;-1.23;77.75;147368.86;1747263;82;21061;-57
2022/01/20 00:59:37;;;;;;;19.20;7.08;;;;;;;-1.23;77.76;147368.86;1745105;82;21141;-56
2022/01/20 01:02:09;;;;;;;16.75;7.42;;;;;;;-1.23;77.76;147367.59;1785963;79;21196;-57
2022/01/20 01:04:36;;;;;;;17.70;7.05;;;;;;;-1.22;77.78;147371.42;1783515;79;20944;-56
2022/01/20 01:09:45;;;;;;;16.12;7.00;;;;;;;-1.23;77.70;147368.86;1725045;79;21125;-56
2022/01/20 01:12:25;;;;;;;16.37;6.55;;;;;;;-1.25;77.72;147363.72;1789331;79;21136;-66
2022/01/20 01:14:47;;;;;;;21.55;7.10;;;;;;;-1.26;77.74;147359.89;1757845;79;21360;-64
2022/01/20 01:20:09;;;;;;;17.23;7.42;;;;;;;-1.32;77.86;147345.73;1785019;79;21057;-66
2022/01/20 01:24:45;;;;;;;20.40;7.70;;;;;;;-1.35;77.89;147339.30;1770549;79;21094;-66
2022/01/20 01:27:13;;;;;;;16.55;7.33;;;;;;;-1.38;77.92;147331.58;1782078;79;22434;-66
2022/01/20 01:30:04;;;;;;;18.32;7.30;;;;;;;-1.40;78.00;147325.19;1783290;79;21037;-66
2022/01/20 01:32:15;;;;;;;20.30;7.75;;;;;;;-1.40;78.05;147325.19;1779632;79;21515;-65
2022/01/20 01:34:46;;;;;;;16.52;7.10;;;;;;;-1.43;78.00;147317.48;1761604;79;21036;-65
2022/01/20 01:37:34;;;;;;;16.00;6.65;;;;;;;-1.46;77.95;147312.30;1786257;79;21031;-57
2022/01/20 01:39:37;;;;;;;16.60;7.80;;;;;;;-1.48;77.93;147305.91;1776543;79;21819;-56
2022/01/20 01:42:05;;;;;;;13.90;7.10;;;;;;;-1.50;77.96;147302.02;1770045;79;21622;-65
2022/01/20 01:44:32;;;;;;;18.98;7.50;;;;;;;-1.51;77.94;147299.45;1782829;78;20982;-65
2022/01/20 01:47:00;;;;;;;21.40;8.33;;;;;;;-1.52;77.93;147296.88;1779731;79;21105;-64
2022/01/20 01:49:28;;;;;;;18.07;7.12;;;;;;;-1.52;77.85;147295.63;1780875;78;20952;-65
2022/01/20 01:51:55;;;;;;;19.30;7.47;;;;;;;-1.52;77.86;147296.88;1786405;79;21135;-67
2022/01/20 01:54:22;;;;;;;16.50;6.97;;;;;;;-1.51;77.75;147299.45;1787824;78;20991;-66
2022/01/20 01:56:50;;;;;;;16.67;6.37;;;;;;;-1.50;77.67;147302.02;1773807;79;21026;-57
2022/01/20 01:59:18;;;;;;;17.45;7.10;;;;;;;-1.48;77.50;147307.16;1783396;79;21495;-57
2022/01/20 02:01:59;;;;;;;13.83;6.40;;;;;;;-1.47;77.34;147308.47;1785739;79;21086;-56
2022/01/20 02:04:26;;;;;;;14.15;6.40;;;;;;;-1.45;77.29;147314.86;1786668;79;21139;-56
2022/01/20 02:07:35;;;;;;;13.95;6.25;;;;;;;-1.42;77.26;147321.31;1778869;79;21544;-56
2022/01/20 02:20:40;;;;;;;12.90;5.92;;;;;;;-1.32;77.75;147345.73;1803170;79;21088;-57
2022/01/20 02:23:09;;;;;;;13.03;5.10;;;;;;;-1.31;77.81;147348.31;1781941;79;21086;-65
2022/01/20 02:25:37;;;;;;;11.78;5.58;;;;;;;-1.30;77.91;147352.19;1785285;79;21040;-56
2022/01/20 02:28:10;;;;;;;18.87;5.92;;;;;;;-1.27;78.05;147357.31;1780772;78;21118;-58
2022/01/20 02:30:39;;;;;;;13.00;5.62;;;;;;;-1.26;78.09;147361.16;1792385;79;21642;-56
2022/01/20 02:33:13;;;;;;;11.80;5.12;;;;;;;-1.25;78.16;147363.72;1800104;79;21510;-56
2022/01/20 02:35:47;;;;;;;13.65;6.12;;;;;;;-1.23;78.35;147367.59;1789379;79;20970;-57
2022/01/20 02:38:26;;;;;;;14.70;5.47;;;;;;;-1.22;78.50;147370.16;1789899;79;20986;-56
2022/01/20 02:49:07;;;;;;;14.38;5.33;;;;;;;-1.18;79.37;147381.75;1720179;81;21721;-66
2022/01/20 02:51:35;;;;;;;17.87;6.03;;;;;;;-1.17;79.70;147384.31;1738762;80;21016;-56
2022/01/20 02:54:03;;;;;;;13.90;5.42;;;;;;;-1.16;79.92;147386.89;1779217;79;20967;-57
2022/01/20 02:56:32;;;;;;;13.10;4.90;;;;;;;-1.16;80.06;147386.89;1793144;79;21020;-64
2022/01/20 02:58:59;;;;;;;12.53;5.45;;;;;;;-1.15;80.20;147388.16;1786643;79;21049;-57
2022/01/20 03:01:26;;;;;;;16.82;6.20;;;;;;;-1.14;80.29;147390.72;1790619;79;21315;-57
2022/01/20 03:03:53;;;;;;;13.00;5.20;;;;;;;-1.16;80.38;147386.89;1786763;79;21496;-56
2022/01/20 03:06:21;;;;;;;12.00;5.78;;;;;;;-1.17;80.61;147384.31;1793291;79;21049;-56
2022/01/20 03:08:48;;;;;;;14.07;6.67;;;;;;;-1.18;80.78;147381.75;1784850;79;21129;-56
2022/01/20 03:11:15;;;;;;;14.47;5.92;;;;;;;-1.17;80.96;147384.31;1788327;79;21056;-57
2022/01/20 03:13:41;;;;;;;12.68;5.70;;;;;;;-1.15;81.15;147388.16;1790677;79;21051;-57
2022/01/20 03:16:09;;;;;;;13.78;6.05;;;;;;;-1.13;81.42;147392.03;1783134;78;21668;-56
2022/01/20 03:18:36;;;;;;;12.98;6.12;;;;;;;-1.12;81.71;147395.86;1784213;79;21490;-58
2022/01/20 03:21:05;;;;;;;13.18;6.37;;;;;;;-1.10;82.02;147401.05;1776746;79;21042;-57
2022/01/20 03:23:31;;;;;;;15.32;6.72;;;;;;;-1.07;82.35;147408.75;1790823;79;21006;-56
2022/01/20 03:25:58;;;;;;;18.27;7.53;;;;;;;-1.05;82.73;147413.89;1771474;79;21093;-56
2022/01/20 03:28:25;;;;;;;15.58;6.65;;;;;;;-1.02;83.12;147420.28;1789035;79;21381;-58
2022/01/20 03:30:51;;;;;;;14.15;6.45;;;;;;;-0.99;83.53;147428.05;1789490;79;21054;-57
2022/01/20 03:33:18;;;;;;;17.73;6.78;;;;;;;-0.97;83.98;147433.19;1792992;79;21211;-57
2022/01/20 03:35:45;;;;;;;16.00;7.03;;;;;;;-0.95;84.46;147437.02;1779874;79;21038;-56
2022/01/20 03:38:30;;;;;;;16.93;6.47;;;;;;;-0.92;84.85;147444.72;1786592;79;21391;-57
2022/01/20 03:40:57;;;;;;;14.70;5.60;;;;;;;-0.89;85.12;147452.44;1786624;79;21059;-56
2022/01/20 03:43:24;;;;;;;13.48;5.92;;;;;;;-0.85;85.38;147461.45;1792732;79;21069;-57
2022/01/20 03:45:56;;;;;;;15.50;6.30;;;;;;;-0.82;85.61;147469.16;1787560;79;22074;-57
2022/01/20 03:48:20;;;;;;;12.18;6.22;;;;;;;-0.79;85.87;147478.19;1789397;79;20966;-57
2022/01/20 03:51:00;;;;;;;15.45;5.90;;;;;;;-0.74;86.03;147489.77;1785797;79;21087;-57
2022/01/20 03:53:36;;;;;;;10.75;5.15;;;;;;;-0.69;86.20;147502.63;1786936;79;21076;-56
2022/01/20 03:56:05;;;;;;;10.65;4.92;;;;;;;-0.65;86.24;147512.91;1787770;79;20972;-56
2022/01/20 03:58:33;;;;;;;15.18;5.53;;;;;;;-0.62;86.18;147519.34;1788304;79;22020;-56
2022/01/20 04:01:00;;;;;;;13.85;5.30;;;;;;;-0.60;86.13;147524.50;1774545;79;21555;-56
2022/01/20 04:03:29;;;;;;;16.48;5.60;;;;;;;-0.56;86.07;147533.47;1783370;79;21346;-56
2022/01/20 04:06:03;;;;;;;10.28;5.40;;;;;;;-0.55;85.94;147536.03;1799446;78;21097;-56
2022/01/20 04:08:39;;;;;;;12.13;4.67;;;;;;;-0.55;85.77;147537.34;1781895;79;21021;-56
2022/01/20 04:11:11;;;;;;;13.90;5.25;;;;;;;-0.54;85.52;147538.66;1792132;79;21223;-57
2022/01/20 04:13:39;;;;;;;13.43;5.85;;;;;;;-0.55;85.13;147536.03;1793142;79;20939;-57
2022/01/20 04:16:14;;;;;;;16.02;5.65;;;;;;;-0.53;84.60;147541.22;1782730;79;21064;-57
2022/01/20 04:18:52;;;;;;;;;;;;;;;-0.53;83.97;147541.22;1786730;79;20978;-56
2022/01/20 04:21:15;;;;;;;13.28;5.40;;;;;;;-0.53;83.25;147541.22;1783684;79;20182;-57
2022/01/20 04:23:41;;;;;;;12.70;5.50;;;;;;;-0.53;82.47;147541.22;1777111;79;22083;-56
2022/01/20 04:26:08;;;;;;;13.32;5.80;;;;;;;-0.53;81.85;147541.22;1783985;79;21022;-56
2022/01/20 04:28:35;;;;;;;13.85;5.28;;;;;;;-0.54;81.17;147538.66;1778454;79;20996;-57
2022/01/20 04:31:02;;;;;;;15.43;5.50;;;;;;;-0.54;80.75;147538.66;1778871;79;21535;-56
2022/01/20 04:33:29;;;;;;;12.98;5.55;;;;;;;-0.52;80.33;147543.80;1786633;79;21001;-57
2022/01/20 04:35:57;;;;;;;10.45;5.53;;;;;;;-0.51;79.79;147546.37;1785261;79;21131;-57
2022/01/20 04:38:23;;;;;;;15.48;5.80;;;;;;;-0.50;79.33;147548.94;1783766;79;21062;-57
2022/01/20 04:40:50;;;;;;;12.23;5.47;;;;;;;-0.50;78.94;147548.94;1784731;79;21038;-58
2022/01/20 04:43:17;;;;;;;13.15;5.65;;;;;;;-0.48;78.73;147554.08;1781546;79;20985;-56
2022/01/20 04:45:52;;;;;;;12.33;5.83;;;;;;;-0.46;78.63;147560.48;1783214;79;21148;-59
2022/01/20 04:48:24;;;;;;;11.80;6.00;;;;;;;-0.43;78.46;147566.94;1785056;79;21133;-56
2022/01/20 04:59:04;;;;;;;13.05;5.67;;;;;;;-0.32;78.28;147595.27;1748308;79;21700;-56
2022/01/20 05:01:31;;;;;;;14.30;5.53;;;;;;;-0.28;78.22;147602.97;1783830;79;21136;-57
2022/01/20 05:04:06;;;;;;;14.15;5.80;;;;;;;-0.25;78.22;147610.69;1783003;79;21018;-58
2022/01/20 05:06:42;;;;;;;15.88;5.40;;;;;;;-0.20;78.20;147623.55;1781462;79;21018;-58
2022/01/20 05:09:10;;;;;;;16.57;5.97;;;;;;;-0.20;78.20;147623.55;1779676;79;21050;-56
2022/01/20 05:11:42;;;;;;;13.58;5.67;;;;;;;-0.18;77.99;147630.00;1785935;79;20977;-56
2022/01/20 05:14:06;;;;;;;13.15;6.25;;;;;;;-0.18;77.89;147628.69;1784528;79;21137;-56
2022/01/20 05:16:33;;;;;;;14.65;5.67;;;;;;;-0.15;77.81;147636.41;1806158;78;21460;-57
2022/01/20 05:19:00;;;;;;;12.37;5.47;;;;;;;-0.18;77.67;147628.69;1801823;78;21572;-57
2022/01/20 05:21:27;;;;;;;15.03;5.53;;;;;;;-0.18;77.74;147628.69;1809882;78;21006;-57
2022/01/20 05:23:54;;;;;;;14.38;5.45;;;;;;;-0.19;77.90;147626.12;1809975;78;21466;-57
2022/01/20 05:26:21;;;;;;;13.08;5.47;;;;;;;-0.19;77.98;147626.12;1781846;78;21155;-57
2022/01/20 05:28:48;;;;;;;13.13;6.50;;;;;;;-0.20;78.14;147623.55;1804425;78;21032;-57
2022/01/20 05:31:15;;;;;;;17.73;7.10;;;;;;;-0.18;78.31;147628.69;1800317;78;21471;-57
2022/01/20 05:33:46;;;;;;;13.98;6.08;;;;;;;-0.19;78.37;147626.12;1802428;78;21057;-56
2022/01/20 05:36:13;;;;;;;18.40;6.10;;;;;;;-0.19;78.45;147627.42;1799932;78;21551;-56
2022/01/20 05:38:42;;;;;;;14.05;6.10;;;;;;;-0.21;78.41;147620.97;1817305;78;21031;-57
2022/01/20 05:41:09;;;;;;;15.30;6.60;;;;;;;-0.20;77.98;147623.55;1804419;78;21032;-57
2022/01/20 05:43:36;;;;;;;14.75;6.33;;;;;;;-0.24;77.43;147613.27;1810231;78;20889;-57
2022/01/20 05:46:04;;;;;;;15.65;6.42;;;;;;;-0.27;77.12;147605.55;1805997;78;21068;-57
2022/01/20 05:48:35;;;;;;;15.32;6.12;;;;;;;-0.30;76.92;147599.09;1806530;78;21038;-56
2022/01/20 05:51:21;;;;;;;12.40;6.30;;;;;;;-0.32;76.69;147595.27;1802002;78;21628;-57
2022/01/20 05:53:49;;;;;;;14.47;6.70;;;;;;;-0.32;76.45;147593.95;1801911;78;21413;-57
2022/01/20 05:56:16;;;;;;;19.12;6.37;;;;;;;-0.32;76.24;147595.27;1804739;78;21447;-57
2022/01/20 05:58:43;;;;;;;19.48;6.30;;;;;;;-0.33;76.16;147592.69;1798481;78;21307;-57
2022/01/20 06:01:11;;;;;;;12.82;6.45;;;;;;;-0.32;76.18;147595.27;1813568;78;21114;-57
2022/01/20 06:03:39;;;;;;;15.75;6.97;;;;;;;-0.30;76.23;147600.41;1806835;78;21514;-57
2022/01/20 06:06:21;;;;;;;15.83;6.65;;;;;;;-0.27;76.28;147606.81;1812591;78;20994;-56
2022/01/20 06:08:50;;;;;;;16.27;6.83;;;;;;;-0.24;76.24;147613.27;1803069;78;20981;-57
2022/01/20 06:11:17;;;;;;;17.55;7.47;;;;;;;-0.21;76.32;147622.28;1803057;78;21081;-57
2022/01/20 06:13:46;;;;;;;18.85;8.05;;;;;;;-0.16;76.60;147633.83;1808668;78;21460;-56
2022/01/20 06:16:13;;;;;;;16.25;7.37;;;;;;;-0.09;76.85;147651.88;1801564;78;21135;-65
2022/01/20 06:18:40;;;;;;;14.23;7.30;;;;;;;-0.02;77.04;147669.88;1784251;79;21041;-57
2022/01/20 06:21:09;;;;;;;16.02;7.83;;;;;;;0.07;77.09;147690.45;1789822;78;21062;-65
2022/01/20 06:23:40;;;;;;;20.75;7.62;;;;;;;0.13;77.13;147705.94;1789393;79;21073;-65
2022/01/20 06:26:07;;;;;;;19.00;8.08;;;;;;;0.21;77.10;147726.50;1784544;79;21061;-64
2022/01/20 06:28:36;;;;;;;19.40;7.72;;;;;;;0.31;77.11;147749.66;1779653;79;21520;-57
2022/01/20 06:31:03;;;;;;;16.52;7.37;;;;;;;0.39;77.10;147770.28;1787005;79;21062;-56
2022/01/20 06:33:30;;;;;;;15.90;6.90;;;;;;;0.49;76.95;147796.02;1784759;79;20960;-64
2022/01/20 06:35:57;;;;;;;14.53;7.35;;;;;;;0.58;76.79;147816.64;1785609;79;20977;-57
2022/01/20 06:38:25;;;;;;;12.90;6.90;;;;;;;0.67;76.68;147839.81;1786346;79;21015;-57
2022/01/20 06:40:53;;;;;;;17.27;7.20;;;;;;;0.74;76.54;147857.81;1788929;79;21085;-66
2022/01/20 06:43:19;;;;;;;24.02;7.50;;;;;;;0.83;76.37;147879.72;1787016;79;21194;-56
2022/01/20 06:45:47;;;;;;;19.60;7.17;;;;;;;0.92;76.16;147901.63;1783143;79;20986;-58
2022/01/20 06:48:16;;;;;;;17.82;7.65;;;;;;;0.99;75.91;147919.63;1786041;79;21068;-58
2022/01/20 06:50:44;;;;;;;22.27;9.23;;;;;;;1.06;75.57;147936.37;1744656;79;21034;-58
2022/01/20 06:53:11;;;;;;;21.75;10.00;;;;;;;1.13;75.50;147955.72;1796958;79;21897;-57
2022/01/20 06:55:38;;;;;;;18.12;8.03;;;;;;;1.20;75.32;147972.47;1784953;79;20863;-58
2022/01/20 06:58:06;;;;;;;15.93;7.20;;;;;;;1.27;75.15;147989.23;1796323;78;21392;-57
2022/01/20 07:00:33;;;;;;;18.45;7.50;;;;;;;1.35;74.80;148009.81;1788907;79;21415;-63
2022/01/20 07:03:00;;;;;;;14.15;7.20;;;;;;;1.38;74.62;148017.55;1790797;79;21074;-65
2022/01/20 07:05:28;;;;;;;15.58;7.72;;;;;;;1.42;74.47;148027.84;1799183;79;21125;-63
2022/01/20 07:07:54;;;;;;;17.15;7.35;;;;;;;1.47;74.32;148038.19;1787106;78;21070;-63
2022/01/20 07:10:23;;;;;;;14.43;7.25;;;;;;;1.51;74.23;148049.75;1782047;79;21075;-59
2022/01/20 07:12:52;;;;;;;16.35;7.03;;;;;;;1.54;74.13;148057.48;1787365;79;21045;-58
2022/01/20 07:15:21;;;;;;;17.37;7.47;;;;;;;1.56;74.02;148061.37;1787098;78;21072;-66
2022/01/20 07:17:52;;;;;;;20.77;7.20;;;;;;;1.61;73.85;148074.23;1798744;78;21620;-65
2022/01/20 07:20:20;;;;;;;15.23;6.62;;;;;;;1.63;73.72;148079.39;1803451;78;21634;-66
2022/01/20 07:23:06;;;;;;;15.70;7.17;;;;;;;1.64;73.59;148081.97;1800932;78;21157;-64
2022/01/20 07:25:35;;;;;;;15.93;7.97;;;;;;;1.64;73.43;148081.97;1801277;78;21091;-66
2022/01/20 07:28:09;;;;;;;15.98;7.22;;;;;;;1.67;73.37;148088.44;1803941;78;21122;-64
2022/01/20 07:30:36;;;;;;;14.50;7.15;;;;;;;1.68;73.18;148091.00;1766851;80;21377;-63
2022/01/20 07:33:05;;;;;;;19.95;7.17;;;;;;;1.66;73.07;148087.17;1766573;79;21162;-64
2022/01/20 07:35:32;;;;;;;18.60;7.75;;;;;;;1.67;73.12;148089.75;1767334;80;21561;-57
2022/01/20 07:37:59;;;;;;;17.42;7.95;;;;;;;1.70;73.14;148097.47;1740739;81;21443;-63
2022/01/20 07:40:26;;;;;;;12.45;7.35;;;;;;;1.73;73.13;148102.63;1738247;81;21142;-65
2022/01/20 07:42:57;;;;;;;16.82;7.45;;;;;;;1.75;73.26;148107.77;1774638;78;21340;-64
2022/01/20 07:45:33;;;;;;;16.12;7.60;;;;;;;1.78;73.44;148116.81;1755316;80;21103;-63
2022/01/20 07:48:18;;;;;;;13.88;6.85;;;;;;;1.83;73.51;148128.38;1767736;79;21154;-66
2022/01/20 07:50:46;;;;;;;15.72;7.25;;;;;;;1.88;73.57;148139.98;1767456;78;21048;-64
2022/01/20 07:53:14;;;;;;;12.70;7.08;;;;;;;1.92;73.64;148151.59;1763518;80;21695;-63
2022/01/20 07:55:47;;;;;;;16.15;7.05;;;;;;;1.96;73.60;148161.91;1740257;81;21541;-66
2022/01/20 07:58:14;;;;;;;15.55;7.67;;;;;;;1.99;73.45;148169.64;1740643;81;21095;-64
2022/01/20 08:00:43;;;;;;;13.95;6.83;;;;;;;2.02;73.39;148176.09;1737512;80;21606;-64
2022/01/20 08:03:10;;;;;;;15.68;7.37;;;;;;;2.07;73.38;148187.67;1736617;81;21067;-65
2022/01/20 08:05:39;;;;;;;16.90;7.72;;;;;;;2.12;73.34;148200.59;1737871;81;21130;-64
2022/01/20 08:08:05;;;;;;;18.67;8.13;;;;;;;2.22;73.29;148225.09;1742419;81;21704;-65
2022/01/20 08:10:35;;;;;;;14.47;6.97;;;;;;;2.30;73.23;148245.70;1742321;80;21126;-65
2022/01/20 08:13:03;;;;;;;19.95;7.50;;;;;;;2.37;72.80;148262.48;1739093;81;21083;-63
2022/01/20 08:15:31;;;;;;;17.62;7.72;;;;;;;2.40;72.37;148270.20;1741634;81;21056;-65
2022/01/20 08:18:00;;;;;;;22.95;8.30;;;;;;;2.47;72.19;148288.25;1718939;81;21759;-58
2022/01/20 08:20:27;;;;;;;15.25;7.47;;;;;;;2.53;71.92;148303.70;1754298;79;21597;-57
2022/01/20 08:22:58;;;;;;;18.23;8.45;;;;;;;2.59;71.76;148317.91;1745790;79;21101;-59
2022/01/20 08:25:26;;;;;;;16.10;7.83;;;;;;;2.64;71.42;148329.53;1724902;80;21088;-65
2022/01/20 08:27:53;;;;;;;15.78;7.95;;;;;;;2.68;71.20;148339.84;1751542;80;21453;-65
2022/01/20 08:30:33;;;;;;;17.77;8.20;;;;;;;2.75;70.83;148357.88;1757027;79;21046;-58
2022/01/20 08:33:19;;;;;;;16.05;7.15;;;;;;;2.80;70.58;148370.81;1710520;80;21410;-57
2022/01/20 08:35:54;;;;;;;19.80;8.48;;;;;;;2.88;70.48;148388.86;1740827;80;21054;-58
2022/01/20 08:38:23;;;;;;;14.87;7.72;;;;;;;2.97;70.25;148412.06;1748122;81;21626;-57
2022/01/20 08:40:52;;;;;;;17.98;7.47;;;;;;;3.02;70.07;148425.00;1746806;79;21731;-59
2022/01/20 08:43:19;;;;;;;19.73;8.45;;;;;;;3.11;69.81;148446.94;1753597;80;21116;-57
2022/01/20 08:45:47;;;;;;;17.77;8.23;;;;;;;3.18;69.63;148463.67;1750734;80;22351;-57
2022/01/20 08:48:15;;;;;;;16.65;8.43;;;;;;;3.25;69.39;148481.77;1786960;78;21090;-57
2022/01/20 08:51:01;;;;;;;15.80;7.25;;;;;;;3.33;69.17;148502.41;1785784;79;22403;-57
2022/01/20 08:53:31;;;;;;;19.67;7.78;;;;;;;3.39;68.62;148517.88;1754859;79;21028;-57
2022/01/20 08:56:00;;;;;;;17.30;7.37;;;;;;;3.47;68.09;148537.23;1728588;81;21096;-66
2022/01/20 08:58:26;;;;;;;13.68;6.55;;;;;;;3.53;67.30;148551.45;1725386;80;21159;-66
2022/01/20 09:00:54;;;;;;;16.17;7.47;;;;;;;3.57;67.02;148561.77;1748847;79;21154;-66
2022/01/20 09:03:24;;;;;;;17.15;8.38;;;;;;;3.61;66.43;148570.81;1752133;80;21088;-65
2022/01/20 09:05:52;;;;;;;16.87;8.08;;;;;;;3.66;66.16;148585.03;1741383;81;21078;-57
2022/01/20 09:08:21;;;;;;;16.97;8.65;;;;;;;3.72;66.06;148599.19;1739312;80;21079;-57
2022/01/20 09:10:54;;;;;;;19.37;8.35;;;;;;;3.79;65.82;148615.98;1737498;79;49787;-58
2022/01/20 09:16:06;;;;;;;18.17;7.25;;;;;;;3.92;64.91;148649.56;1738208;81;21560;-58
2022/01/20 09:18:39;;;;;;;15.72;7.00;;;;;;;3.97;64.60;148662.47;1734716;81;21135;-56
2022/01/20 09:21:05;;;;;;;16.17;6.90;;;;;;;4.01;64.01;148672.78;1737169;81;21072;-57
2022/01/20 09:23:33;;;;;;;16.93;6.90;;;;;;;4.01;63.60;148672.78;1741210;80;21884;-57
2022/01/20 09:26:02;;;;;;;13.48;6.30;;;;;;;4.05;63.18;148680.53;1788458;79;21100;-57
2022/01/20 09:28:31;;;;;;;14.28;7.08;;;;;;;4.08;62.75;148688.27;1786966;78;21118;-57
2022/01/20 09:31:00;;;;;;;14.73;6.50;;;;;;;4.10;62.47;148694.75;1786378;79;21128;-69
2022/01/20 09:33:28;;;;;;;13.65;6.55;;;;;;;4.12;61.93;148698.64;1784936;79;21072;-65
2022/01/20 09:35:57;;;;;;;12.15;6.00;;;;;;;4.16;61.87;148708.97;1788538;79;21751;-72
2022/01/20 09:38:26;;;;;;;13.20;6.35;;;;;;;4.22;61.57;148724.44;1790560;79;21807;-67
2022/01/20 09:40:54;;;;;;;16.32;6.60;;;;;;;4.27;61.23;148736.08;1793517;78;21060;-69
2022/01/20 09:43:21;;;;;;;13.25;6.28;;;;;;;4.32;60.80;148747.72;1728892;81;21018;-68
2022/01/20 09:45:55;;;;;;;18.17;6.42;;;;;;;4.37;60.58;148760.62;1757800;79;21452;-69
2022/01/20 09:48:22;;;;;;;13.10;5.95;;;;;;;4.45;60.32;148781.27;1790530;78;21318;-57
2022/01/20 09:51:01;;;;;;;15.25;6.37;;;;;;;4.49;59.86;148791.59;1778836;79;21067;-57
2022/01/20 09:53:32;;;;;;;16.27;5.72;;;;;;;4.52;59.39;148799.34;1783791;78;21068;-58
2022/01/20 09:56:07;;;;;;;13.32;5.75;;;;;;;4.54;59.23;148804.55;1780545;78;21673;-57
2022/01/20 09:58:34;;;;;;;12.37;5.78;;;;;;;4.56;58.92;148809.72;1786272;79;21122;-60
2022/01/20 10:01:02;;;;;;;14.35;5.90;;;;;;;4.57;58.54;148812.28;1764393;79;21101;-56
2022/01/20 10:03:41;;;;;;;10.05;5.30;;;;;;;4.59;58.32;148817.45;1788651;79;21051;-57
2022/01/20 10:06:27;;;;;;;11.80;5.72;;;;;;;4.61;58.26;148820.03;1771032;79;20877;-57
2022/01/20 10:09:13;;;;;;;12.13;5.37;;;;;;;4.65;58.30;148830.36;1772914;79;20925;-58
2022/01/20 10:12:00;;;;;;;11.50;5.47;;;;;;;4.65;58.30;148830.36;1786594;79;20893;-58
2022/01/20 10:14:59;;;;;;;12.78;5.03;;;;;;;4.66;58.26;148832.94;1719977;81;21440;-59
2022/01/20 10:17:50;;;;;;;14.65;5.95;;;;;;;4.68;58.54;148839.42;1774915;79;20933;-71
2022/01/20 10:20:19;;;;;;;14.20;5.33;;;;;;;4.72;58.80;148848.44;1786799;78;21114;-58
2022/01/20 10:22:53;;;;;;;15.75;5.15;;;;;;;4.75;59.14;148854.91;1789016;79;21466;-58
2022/01/20 10:25:31;;;;;;;12.68;5.40;;;;;;;4.75;59.36;148856.17;1780538;79;21068;-67
2022/01/20 10:27:59;;;;;;;12.60;5.40;;;;;;;4.77;59.58;148861.39;1771997;77;21103;-67
2022/01/20 10:30:28;;;;;;;11.18;4.95;;;;;;;4.79;59.87;148866.56;1789663;78;21466;-67
2022/01/20 10:32:59;;;;;;;11.80;5.25;;;;;;;4.82;60.03;148874.30;1784713;78;21455;-67
2022/01/20 10:35:32;;;;;;;14.13;5.70;;;;;;;4.83;60.06;148876.88;1786334;79;21024;-67
2022/01/20 10:38:12;;;;;;;15.23;5.55;;;;;;;4.84;60.11;148879.47;1786112;79;21033;-68
2022/01/20 10:40:50;;;;;;;10.10;4.85;;;;;;;4.84;60.29;148879.47;1748804;81;21088;-66
2022/01/20 10:43:29;;;;;;;11.88;5.30;;;;;;;4.84;60.35;148879.47;1736827;80;21462;-67
2022/01/20 10:46:10;;;;;;;15.78;5.15;;;;;;;4.83;60.19;148876.88;1733931;80;21073;-67
2022/01/20 10:48:38;;;;;;;13.65;5.15;;;;;;;4.83;60.26;148875.56;1724912;81;21092;-67
2022/01/20 10:51:17;;;;;;;17.60;5.33;;;;;;;4.83;60.51;148876.88;1756588;79;21473;-67
2022/01/20 10:53:45;;;;;;;13.65;5.55;;;;;;;4.83;60.51;148876.88;1790176;79;21224;-67
2022/01/20 10:56:12;;;;;;;14.55;5.12;;;;;;;4.85;60.63;148880.72;1765890;79;21080;-58
2022/01/20 10:58:40;;;;;;;12.20;6.03;;;;;;;4.84;60.91;148879.47;1788848;77;21216;-59
2022/01/20 11:01:17;;;;;;;12.63;5.35;;;;;;;4.84;61.30;148879.47;1787216;78;21056;-67
2022/01/20 11:03:44;;;;;;;13.10;5.90;;;;;;;4.85;61.30;148882.05;1791907;79;21068;-69
2022/01/20 11:06:12;;;;;;;15.53;6.28;;;;;;;4.85;61.30;148882.05;1793684;79;21138;-67
2022/01/20 11:08:43;;;;;;;12.05;5.15;;;;;;;4.86;61.02;148883.31;1792730;79;21064;-57
2022/01/20 11:11:15;;;;;;;13.28;5.53;;;;;;;4.84;60.22;148879.47;1786126;79;21044;-58
2022/01/20 11:13:49;;;;;;;9.28;5.00;;;;;;;4.85;60.03;148880.72;1788480;79;21060;-58
2022/01/20 11:16:17;;;;;;;18.00;5.83;;;;;;;4.86;59.66;148884.63;1790634;78;21119;-68
2022/01/20 11:18:45;;;;;;;14.83;5.70;;;;;;;4.88;59.64;148889.78;1793058;79;21107;-67
2022/01/20 11:21:24;;;;;;;14.70;5.62;;;;;;;4.92;59.79;148897.53;1729221;81;21696;-67
2022/01/20 11:23:52;;;;;;;13.32;5.40;;;;;;;4.94;59.91;148902.69;1755890;79;21171;-68
2022/01/20 11:26:40;;;;;;;11.95;5.45;;;;;;;4.96;59.95;148907.86;1652953;84;21616;-67
2022/01/20 11:29:25;;;;;;;16.90;5.37;;;;;;;4.93;59.74;148901.44;1698281;82;21076;-59
2022/01/20 11:31:57;;;;;;;13.80;5.05;;;;;;;4.92;59.59;148897.53;1727241;81;21120;-57
2022/01/20 11:34:32;;;;;;;13.15;5.20;;;;;;;4.90;59.21;148892.38;1731210;80;21017;-57
2022/01/20 11:37:09;;;;;;;13.90;5.03;;;;;;;4.86;59.26;148883.31;1731865;81;21522;-57
2022/01/20 11:39:36;;;;;;;12.98;5.00;;;;;;;4.86;59.26;148883.31;1737044;81;21473;-58
2022/01/20 11:42:05;;;;;;;14.30;5.62;;;;;;;4.84;59.26;148879.47;1734706;81;21068;-58
2022/01/20 11:44:32;;;;;;;16.37;5.15;;;;;;;4.83;59.43;148875.56;1737305;81;21123;-66
2022/01/20 11:47:07;;;;;;;13.93;4.85;;;;;;;4.82;59.69;148874.30;1732375;81;21021;-66
2022/01/20 11:49:37;;;;;;;15.75;5.87;;;;;;;4.79;59.70;148866.56;1731158;81;21000;-66
2022/01/20 11:52:05;;;;;;;12.68;5.45;;;;;;;4.82;59.53;148872.98;1730830;80;21064;-68
2022/01/20 11:54:43;;;;;;;16.12;5.85;;;;;;;4.82;59.39;148872.98;1753171;80;21134;-68
2022/01/20 11:57:30;;;;;;;15.13;4.95;;;;;;;4.83;59.37;148876.88;1732665;80;21131;-58
2022/01/20 12:00:00;;;;;;;14.98;5.20;;;;;;;4.85;59.23;148882.05;1781655;78;21032;-58
2022/01/20 12:02:35;;;;;;;14.33;5.40;;;;;;;4.85;58.49;148880.72;1788104;79;21479;-57
2022/01/20 12:05:28;;;;;;;13.78;4.92;;;;;;;4.84;57.58;148879.47;1782327;79;22221;-60
2022/01/20 12:08:09;;;;;;;10.65;5.28;;;;;;;4.83;56.76;148875.56;1781788;79;21533;-56
2022/01/20 12:10:36;;;;;;;11.18;4.95;;;;;;;4.79;56.26;148865.23;1792355;79;21116;-57
2022/01/20 12:13:11;;;;;;;12.68;5.12;;;;;;;4.72;55.92;148848.44;1780298;79;21093;-58
2022/01/20 12:15:50;;;;;;;16.87;5.78;;;;;;;4.72;55.92;148848.44;1787892;79;21035;-57
2022/01/20 12:18:18;;;;;;;12.80;5.12;;;;;;;4.72;56.05;148849.75;1795523;79;21040;-58
2022/01/20 12:20:45;;;;;;;10.75;5.28;;;;;;;4.72;55.93;148848.44;1794008;79;21133;-58
2022/01/20 12:23:14;;;;;;;14.63;5.78;;;;;;;4.72;55.92;148848.44;1718299;81;21984;-58
2022/01/20 12:28:44;;;;;;;11.33;5.47;;;;;;;4.73;56.15;148851.02;1757065;79;21080;-57
2022/01/20 12:31:15;;;;;;;13.55;5.22;;;;;;;4.73;56.22;148852.33;1706243;82;21637;-57
2022/01/20 12:33:46;;;;;;;11.63;5.50;;;;;;;4.74;56.11;148853.59;1755832;80;21080;-62
2022/01/20 12:36:15;;;;;;;12.98;5.50;;;;;;;4.73;56.18;148851.02;1749169;80;21098;-68
2022/01/20 12:38:48;;;;;;;13.72;5.10;;;;;;;4.72;56.16;148849.75;1752315;80;21663;-67